• Join FlightAware (Why Join?)
  • Login
  • US Flag 
11:22AM EDT


 

Airport Tracker/Info


-or-


 

Live Flight TrackerFlight Track Log ✈ N135FL ✈ 15-Sep-2013 ✈ KAPF - KPNS

Flight Track Log - Related Links

Times and Time Zones

All times are in EDT time to prevent confusion due to time zone crossing. See the N135FL flight status page for this flight to view local times or setup timezone preferences in your user account.

Time Position Orientation Groundspeed Altitude Reporting Facility
EDT Latitude Longitude Course Direction KTS MPH feet Rate Location/Type
09:03PM 26.3128 -81.7836 268° West 180 207 4,800  Level Miami Center
09:04PM 26.3558 -81.8039 337° Northwest 174 200 6,000 1,200 Climbing Miami Center
09:05PM 26.3992 -81.8197 342° North 169 194 7,200 1,200 Climbing Miami Center
09:06PM 26.4012 -82.0689 316° Northwest  Level Estimated
09:06PM 26.4403 -81.8353 341° North 162 186 8,400  Level Miami Center
09:07PM 26.3992 -82.1363 268° West  Level FlightAware Approximate
09:07PM 26.4689 -81.8550 328° Northwest 162 186 9,400  Level Miami Center
09:08PM 26.3972 -82.2036 268° West  Level FlightAware Approximate
09:08PM 26.5050 -81.8961 314° West 157 181 10,600  Level Miami Center
09:09PM 26.5394 -81.9300 319° Northwest 163 188 11,600 1,020 Climbing Miami Center
09:10PM 26.5794 -81.9758 314° West 173 199 12,700 1,020 Climbing Miami Center
09:11PM 26.6222 -82.0103 324° Northwest 186 214 13,700 960 Climbing Miami Center
09:12PM 26.6647 -82.0447 324° Northwest 191 220 14,700 960 Climbing Miami Center
09:13PM 26.7056 -82.0742 327° Northwest 197 227 15,700 960 Climbing Miami Center
09:14PM 26.7503 -82.1064 327° Northwest 192 221 16,700 900 Climbing Miami Center
09:15PM 26.7911 -82.1339 329° Northwest 187 215 17,500 900 Climbing Miami Center
09:16PM 26.8439 -82.1689 329° Northwest 187 215 18,600 1,020 Climbing Miami Center
09:17PM 26.8886 -82.2058 324° Northwest 194 223 19,600 900 Climbing Miami Center
09:18PM 26.9356 -82.2336 332° Northwest 194 223 20,500 900 Climbing Miami Center
09:19PM 26.9869 -82.2522 342° North 183 211 21,500 960 Climbing Miami Center
09:20PM 27.0425 -82.2736 341° North 183 211 22,500 900 Climbing Miami Center
09:21PM 27.0942 -82.2922 342° North 188 216 23,300 720 Climbing Miami Center
09:22PM 27.1478 -82.3086 345° North 193 222 24,000 600 Climbing Miami Center
09:23PM 27.2033 -82.3253 345° North 198 228 24,600 540 Climbing Miami Center
09:24PM 27.2528 -82.3442 341° North 205 236 25,100 600 Climbing Miami Center
09:25PM 27.3206 -82.3706 341° North 210 242 25,900 420 Climbing Miami Center
09:26PM 27.3800 -82.3992 337° Northwest 221 254 26,000  Climbing Miami Center
09:27PM 27.4456 -82.4328 336° Northwest 239 275 26,000  Level Miami Center
09:28PM 27.5028 -82.4636 334° Northwest 251 289 26,000  Level Miami Center
09:29PM 27.5703 -82.4997 335° Northwest 261 300 26,000  Level Miami Center
09:32PM 27.7344 -82.5903 334° Northwest 267 307 26,000  Level Jacksonville Center
09:33PM 27.7969 -82.6275 332° Northwest 261 300 26,000  Level Jacksonville Center
09:34PM 27.8639 -82.6672 332° Northwest 261 300 26,000  Level Jacksonville Center
09:35PM 27.9328 -82.7000 337° Northwest 261 300 26,000  Level Jacksonville Center
09:36PM 28.0039 -82.7208 345° North 261 300 26,000  Level Jacksonville Center
09:37PM 28.0769 -82.7467 343° North 266 306 26,000  Level Jacksonville Center
09:39PM 28.2064 -82.8219 333° Northwest 266 306 26,000  Level Jacksonville Center
09:40PM 28.2564 -82.8856 312° West 261 300 26,000  Level Jacksonville Center
09:41PM 28.3003 -82.9514 307° West 261 300 26,000  Level Jacksonville Center
09:42PM 28.3419 -83.0222 304° West 268 308 26,000  Level Jacksonville Center
09:43PM 28.3794 -83.0908 302° West 262 302 26,000  Level Jacksonville Center
09:44PM 28.4208 -83.1617 304° West 250 288 26,000  Level Jacksonville Center
09:45PM 28.4542 -83.2325 298° West 250 288 26,000  Level Jacksonville Center
09:46PM 28.4853 -83.2989 298° West 250 288 26,000  Level Jacksonville Center
09:47PM 28.5142 -83.3675 296° West 245 282 26,000  Level Jacksonville Center
09:48PM 28.5453 -83.4408 296° West 245 282 26,000  Level Jacksonville Center
09:49PM 28.5783 -83.5119 298° West 245 282 26,000  Level Jacksonville Center
09:50PM 28.6092 -83.5808 297° West 245 282 26,000  Level Jacksonville Center
09:51PM 28.6506 -83.6447 306° West 245 282 26,000  Level Jacksonville Center
09:52PM 28.6919 -83.7114 305° West 257 296 26,000  Level Jacksonville Center
09:53PM 28.7353 -83.7806 306° West 262 302 26,000  Level Jacksonville Center
09:54PM 28.7850 -83.8450 311° West 262 302 26,000  Level Jacksonville Center
09:55PM 28.8303 -83.9117 308° West 267 307 26,000  Level Jacksonville Center
09:56PM 28.8736 -83.9761 308° West 267 307 26,000  Level Jacksonville Center
09:57PM 28.9128 -84.0478 302° West 267 307 26,000  Level Jacksonville Center
09:58PM 28.9517 -84.1169 303° West 262 302 26,000 -300 Level Jacksonville Center
09:59PM 28.9886 -84.1933 299° West 262 302 25,500 -600 Descending Jacksonville Center
10:00PM 29.0192 -84.2722 294° West 267 307 24,900 -540 Descending Jacksonville Center
10:01PM 29.0475 -84.3439 294° West 272 313 24,500 -600 Descending Jacksonville Center
10:02PM 29.0736 -84.4225 291° West 272 313 23,800 -660 Descending Jacksonville Center
10:03PM 29.1103 -84.4944 300° West 267 307 23,200 -600 Descending Jacksonville Center
10:04PM 29.1408 -84.5686 295° West 261 300 22,600 -600 Descending Jacksonville Center
10:05PM 29.1689 -84.6428 293° West 261 300 22,000 -300 Descending Jacksonville Center
10:06PM 29.1889 -84.7194 287° West 256 295 22,000  Level Jacksonville Center
10:07PM 29.2211 -84.7889 298° West 248 285 22,000  Level Jacksonville Center
10:08PM 29.2556 -84.8539 301° West 242 278 22,000  Level Jacksonville Center
10:09PM 29.2858 -84.9233 297° West 242 278 22,000  Level Jacksonville Center
10:10PM 29.3181 -84.9956 297° West 247 284 22,000  Level Jacksonville Center
10:11PM 29.3522 -85.0725 297° West 247 284 22,000  Level Jacksonville Center
10:12PM 29.3847 -85.1375 300° West 247 284 22,000  Level Jacksonville Center
10:13PM 29.4272 -85.2100 304° West 252 290 22,000  Level Jacksonville Center
10:14PM 29.4614 -85.2778 300° West 252 290 22,000  Level Jacksonville Center
10:15PM 29.4956 -85.3500 299° West 257 296 22,000  Level Jacksonville Center
10:16PM 29.5339 -85.4203 302° West 252 290 22,000  Level Jacksonville Center
10:17PM 29.5742 -85.4858 305° West 257 296 22,000  Level Jacksonville Center
10:18PM 29.6211 -85.5419 314° West 257 296 22,000  Level Jacksonville Center
10:19PM 29.6656 -85.6053 309° West 252 290 22,000 -120 Level Jacksonville Center
10:20PM 29.7061 -85.6686 306° West 252 290 21,800 -360 Descending Jacksonville Center
10:21PM 29.7464 -85.7367 304° West 252 290 21,300 -480 Descending Jacksonville Center
10:22PM 29.7844 -85.8072 302° West 257 296 20,900 -540 Descending Jacksonville Center
10:23PM 29.8181 -85.8800 298° West 257 296 20,300 -600 Descending Jacksonville Center
10:24PM 29.8481 -85.9456 298° West 245 282 19,800 -540 Descending Jacksonville Center
10:25PM 29.8756 -86.0111 296° West 233 268 19,300 -540 Descending Jacksonville Center
10:26PM 29.9031 -86.0817 294° West 233 268 18,800 -540 Descending Jacksonville Center
10:27PM 29.9283 -86.1542 292° West 239 275 18,300 -480 Descending Jacksonville Center
10:28PM 29.9664 -86.2156 306° West 239 275 17,900 -540 Descending Jacksonville Center
10:29PM 30.0044 -86.2767 306° West 239 275 17,300 -720 Descending Jacksonville Center
10:30PM 30.0467 -86.3358 310° West 239 275 16,500 -900 Descending Jacksonville Center
10:31PM 30.0847 -86.3972 306° West 239 275 15,600 -1,020 Descending Jacksonville Center
10:33PM 30.1519 -86.5292 301° West 225 259 13,500 -1,020 Descending Jacksonville Center
10:33PM 30.1717 -86.5708 299° West 225 259 12,900 -960 Descending Jacksonville Center
10:34PM 30.1992 -86.6319 298° West 225 259 12,000 -1,020 Descending Jacksonville Center
10:35PM 30.2286 -86.6908 300° West 221 254 11,000 -1,020 Descending Jacksonville Center
10:36PM 30.2603 -86.7522 301° West 220 253 10,000 -1,080 Descending Jacksonville Center
10:37PM 30.2997 -86.8236 303° West 221 254 8,800 -1,140 Descending Jacksonville Center
10:38PM 30.3253 -86.8775 299° West 217 250 7,800 -1,140 Descending Jacksonville Center
10:39PM 30.3547 -86.9389 299° West 215 247 6,700 -1,140 Descending Jacksonville Center
10:40PM 30.3783 -86.9833 302° West 209 241 5,800 -1,200 Descending Jacksonville Center
10:41PM 30.4036 -87.0419 297° West 198 228 4,600 -1,200 Descending Jacksonville Center
10:42PM 30.4528 -87.0658 337° Northwest 177 204 3,400 -1,020 Descending Jacksonville Center
10:43PM 30.4958 -87.0894 335° Northwest 175 201 2,600 -780 Descending Jacksonville Center
10:44PM 30.5150 -87.1411 293° West 169 194 1,900 -600 Descending Jacksonville Center
10:45PM 30.5153 -87.1939 270° West 134 154 1,400 -780 Descending Jacksonville Center
10:46PM 30.4883 -87.1953 183° South 96 110 300 -1,140 Descending Jacksonville Center
10:48PM 30.4734 -87.1866 180° South  Level Estimated
10:55PM 30.4734 -87.1866 180° South  Level Estimated